sensor_id;sensor_type;location;lat;lon;timestamp;P1;durP1;ratioP1;P2;durP2;ratioP2
9128;SDS011;4599;50.906;6.786;2022-11-15T00:02:25;12.50;;;8.10;;
9128;SDS011;4599;50.906;6.786;2022-11-15T00:06:27;24.67;;;11.97;;
9128;SDS011;4599;50.906;6.786;2022-11-15T00:10:29;19.73;;;10.57;;
9128;SDS011;4599;50.906;6.786;2022-11-15T00:14:30;19.77;;;8.87;;
9128;SDS011;4599;50.906;6.786;2022-11-15T00:18:33;14.53;;;7.00;;
9128;SDS011;4599;50.906;6.786;2022-11-15T00:22:34;11.00;;;6.47;;
9128;SDS011;4599;50.906;6.786;2022-11-15T00:26:36;12.73;;;7.27;;
9128;SDS011;4599;50.906;6.786;2022-11-15T00:30:38;24.87;;;10.40;;
9128;SDS011;4599;50.906;6.786;2022-11-15T00:34:41;24.97;;;11.13;;
9128;SDS011;4599;50.906;6.786;2022-11-15T00:38:42;28.67;;;13.00;;
9128;SDS011;4599;50.906;6.786;2022-11-15T00:42:45;21.47;;;9.10;;
9128;SDS011;4599;50.906;6.786;2022-11-15T00:46:47;14.13;;;7.47;;
9128;SDS011;4599;50.906;6.786;2022-11-15T00:50:51;11.10;;;6.70;;
9128;SDS011;4599;50.906;6.786;2022-11-15T00:54:53;11.73;;;5.97;;
9128;SDS011;4599;50.906;6.786;2022-11-15T00:58:54;21.80;;;8.23;;
9128;SDS011;4599;50.906;6.786;2022-11-15T01:02:56;26.03;;;9.40;;
9128;SDS011;4599;50.906;6.786;2022-11-15T01:06:59;18.57;;;8.00;;
9128;SDS011;4599;50.906;6.786;2022-11-15T01:11:01;11.77;;;5.87;;
9128;SDS011;4599;50.906;6.786;2022-11-15T01:15:03;10.27;;;5.00;;
9128;SDS011;4599;50.906;6.786;2022-11-15T01:19:06;7.77;;;5.30;;
9128;SDS011;4599;50.906;6.786;2022-11-15T01:23:09;7.63;;;5.63;;
9128;SDS011;4599;50.906;6.786;2022-11-15T01:27:11;9.87;;;6.10;;
9128;SDS011;4599;50.906;6.786;2022-11-15T01:31:14;6.23;;;4.90;;
9128;SDS011;4599;50.906;6.786;2022-11-15T01:35:17;7.57;;;4.97;;
9128;SDS011;4599;50.906;6.786;2022-11-15T01:39:20;12.50;;;5.50;;
9128;SDS011;4599;50.906;6.786;2022-11-15T01:43:22;8.17;;;5.97;;
9128;SDS011;4599;50.906;6.786;2022-11-15T01:47:25;15.03;;;7.23;;
9128;SDS011;4599;50.906;6.786;2022-11-15T01:51:31;26.43;;;11.20;;
9128;SDS011;4599;50.906;6.786;2022-11-15T01:55:35;29.80;;;12.20;;
9128;SDS011;4599;50.906;6.786;2022-11-15T01:59:37;13.90;;;8.27;;
9128;SDS011;4599;50.906;6.786;2022-11-15T02:03:42;10.13;;;7.30;;
9128;SDS011;4599;50.906;6.786;2022-11-15T02:07:50;11.23;;;6.93;;
9128;SDS011;4599;50.906;6.786;2022-11-15T02:11:53;29.87;;;11.80;;
9128;SDS011;4599;50.906;6.786;2022-11-15T02:15:58;16.30;;;9.53;;
9128;SDS011;4599;50.906;6.786;2022-11-15T02:24:40;22.50;;;10.43;;
9128;SDS011;4599;50.906;6.786;2022-11-15T02:29:01;13.57;;;7.70;;
9128;SDS011;4599;50.906;6.786;2022-11-15T02:33:10;10.83;;;6.80;;
9128;SDS011;4599;50.906;6.786;2022-11-15T02:37:24;22.27;;;10.00;;
9128;SDS011;4599;50.906;6.786;2022-11-15T02:41:34;21.43;;;11.03;;
9128;SDS011;4599;50.906;6.786;2022-11-15T02:45:44;28.00;;;11.57;;
9128;SDS011;4599;50.906;6.786;2022-11-15T02:49:51;25.53;;;10.70;;
9128;SDS011;4599;50.906;6.786;2022-11-15T02:53:55;14.80;;;8.57;;
9128;SDS011;4599;50.906;6.786;2022-11-15T02:58:01;8.10;;;5.37;;
9128;SDS011;4599;50.906;6.786;2022-11-15T03:02:19;6.07;;;4.20;;
9128;SDS011;4599;50.906;6.786;2022-11-15T03:06:32;7.30;;;4.73;;
9128;SDS011;4599;50.906;6.786;2022-11-15T03:10:44;18.97;;;8.23;;
9128;SDS011;4599;50.906;6.786;2022-11-15T03:14:51;23.17;;;8.70;;
9128;SDS011;4599;50.906;6.786;2022-11-15T03:18:59;7.40;;;4.73;;
9128;SDS011;4599;50.906;6.786;2022-11-15T03:23:09;22.63;;;8.80;;
9128;SDS011;4599;50.906;6.786;2022-11-15T03:27:12;34.20;;;12.83;;
9128;SDS011;4599;50.906;6.786;2022-11-15T03:31:16;22.23;;;10.37;;
9128;SDS011;4599;50.906;6.786;2022-11-15T03:35:23;19.20;;;8.90;;
9128;SDS011;4599;50.906;6.786;2022-11-15T03:39:29;20.97;;;9.87;;
9128;SDS011;4599;50.906;6.786;2022-11-15T03:43:33;21.70;;;9.50;;
9128;SDS011;4599;50.906;6.786;2022-11-15T03:47:43;10.77;;;5.67;;
9128;SDS011;4599;50.906;6.786;2022-11-15T03:51:49;5.60;;;4.20;;
9128;SDS011;4599;50.906;6.786;2022-11-15T03:55:52;8.17;;;4.87;;
9128;SDS011;4599;50.906;6.786;2022-11-15T03:59:54;3.90;;;3.23;;
9128;SDS011;4599;50.906;6.786;2022-11-15T04:03:56;8.50;;;4.37;;
9128;SDS011;4599;50.906;6.786;2022-11-15T04:07:57;21.03;;;8.73;;
9128;SDS011;4599;50.906;6.786;2022-11-15T04:12:00;21.60;;;7.73;;
9128;SDS011;4599;50.906;6.786;2022-11-15T04:16:02;23.57;;;8.50;;
9128;SDS011;4599;50.906;6.786;2022-11-15T04:20:04;27.73;;;10.07;;
9128;SDS011;4599;50.906;6.786;2022-11-15T04:24:07;26.10;;;8.70;;
9128;SDS011;4599;50.906;6.786;2022-11-15T04:28:10;24.93;;;9.17;;
9128;SDS011;4599;50.906;6.786;2022-11-15T04:32:11;33.83;;;12.33;;
9128;SDS011;4599;50.906;6.786;2022-11-15T04:36:13;12.93;;;7.33;;
9128;SDS011;4599;50.906;6.786;2022-11-15T04:40:17;8.87;;;3.97;;
9128;SDS011;4599;50.906;6.786;2022-11-15T04:44:20;4.43;;;3.50;;
9128;SDS011;4599;50.906;6.786;2022-11-15T04:48:21;5.03;;;3.10;;
9128;SDS011;4599;50.906;6.786;2022-11-15T04:52:23;3.03;;;2.63;;
9128;SDS011;4599;50.906;6.786;2022-11-15T04:56:24;3.13;;;2.67;;
9128;SDS011;4599;50.906;6.786;2022-11-15T05:00:28;4.23;;;2.87;;
9128;SDS011;4599;50.906;6.786;2022-11-15T05:04:30;4.93;;;2.50;;
9128;SDS011;4599;50.906;6.786;2022-11-15T05:08:31;3.10;;;2.80;;
9128;SDS011;4599;50.906;6.786;2022-11-15T05:12:33;4.37;;;2.40;;
9128;SDS011;4599;50.906;6.786;2022-11-15T05:16:36;3.17;;;2.33;;
9128;SDS011;4599;50.906;6.786;2022-11-15T05:20:37;2.20;;;1.90;;
9128;SDS011;4599;50.906;6.786;2022-11-15T05:24:39;3.30;;;1.90;;
9128;SDS011;4599;50.906;6.786;2022-11-15T05:28:40;2.20;;;1.60;;
9128;SDS011;4599;50.906;6.786;2022-11-15T05:32:43;6.37;;;1.70;;
9128;SDS011;4599;50.906;6.786;2022-11-15T05:36:45;3.63;;;1.60;;
9128;SDS011;4599;50.906;6.786;2022-11-15T05:40:47;4.47;;;1.67;;
9128;SDS011;4599;50.906;6.786;2022-11-15T05:44:48;1.53;;;1.30;;
9128;SDS011;4599;50.906;6.786;2022-11-15T05:48:52;1.87;;;1.63;;
9128;SDS011;4599;50.906;6.786;2022-11-15T05:52:56;2.17;;;1.70;;
9128;SDS011;4599;50.906;6.786;2022-11-15T05:57:04;1.97;;;1.60;;
9128;SDS011;4599;50.906;6.786;2022-11-15T06:01:05;1.70;;;1.60;;
9128;SDS011;4599;50.906;6.786;2022-11-15T06:05:09;3.43;;;1.60;;
9128;SDS011;4599;50.906;6.786;2022-11-15T06:09:10;5.33;;;1.90;;
9128;SDS011;4599;50.906;6.786;2022-11-15T06:13:12;2.90;;;1.83;;
9128;SDS011;4599;50.906;6.786;2022-11-15T06:17:13;5.93;;;3.10;;
9128;SDS011;4599;50.906;6.786;2022-11-15T06:21:16;1.47;;;1.37;;
9128;SDS011;4599;50.906;6.786;2022-11-15T06:25:18;4.00;;;1.40;;
9128;SDS011;4599;50.906;6.786;2022-11-15T06:29:19;1.70;;;1.60;;
9128;SDS011;4599;50.906;6.786;2022-11-15T06:33:21;3.77;;;1.40;;
9128;SDS011;4599;50.906;6.786;2022-11-15T06:37:24;2.57;;;1.60;;
9128;SDS011;4599;50.906;6.786;2022-11-15T06:41:25;4.40;;;1.97;;
9128;SDS011;4599;50.906;6.786;2022-11-15T06:45:27;3.20;;;1.80;;
9128;SDS011;4599;50.906;6.786;2022-11-15T06:49:29;6.60;;;2.73;;
9128;SDS011;4599;50.906;6.786;2022-11-15T06:53:32;3.77;;;2.03;;
9128;SDS011;4599;50.906;6.786;2022-11-15T06:57:34;1.70;;;1.60;;
9128;SDS011;4599;50.906;6.786;2022-11-15T07:01:36;1.40;;;1.30;;
9128;SDS011;4599;50.906;6.786;2022-11-15T07:05:38;5.87;;;1.93;;
9128;SDS011;4599;50.906;6.786;2022-11-15T07:09:40;2.77;;;1.97;;
9128;SDS011;4599;50.906;6.786;2022-11-15T07:13:42;5.80;;;2.00;;
9128;SDS011;4599;50.906;6.786;2022-11-15T07:17:43;1.70;;;1.60;;
9128;SDS011;4599;50.906;6.786;2022-11-15T07:21:45;3.00;;;2.20;;
9128;SDS011;4599;50.906;6.786;2022-11-15T07:25:48;14.50;;;10.43;;
9128;SDS011;4599;50.906;6.786;2022-11-15T07:29:49;10.57;;;4.60;;
9128;SDS011;4599;50.906;6.786;2022-11-15T07:33:51;5.50;;;2.73;;
9128;SDS011;4599;50.906;6.786;2022-11-15T07:37:53;4.23;;;2.33;;
9128;SDS011;4599;50.906;6.786;2022-11-15T07:41:57;4.37;;;2.53;;
9128;SDS011;4599;50.906;6.786;2022-11-15T07:45:58;2.40;;;2.00;;
9128;SDS011;4599;50.906;6.786;2022-11-15T07:50:01;2.13;;;1.70;;
9128;SDS011;4599;50.906;6.786;2022-11-15T07:54:03;3.00;;;1.70;;
9128;SDS011;4599;50.906;6.786;2022-11-15T07:58:07;2.83;;;1.90;;
9128;SDS011;4599;50.906;6.786;2022-11-15T08:02:10;1.60;;;1.50;;
9128;SDS011;4599;50.906;6.786;2022-11-15T08:06:12;2.83;;;1.83;;
9128;SDS011;4599;50.906;6.786;2022-11-15T08:10:13;2.77;;;1.57;;
9128;SDS011;4599;50.906;6.786;2022-11-15T08:14:17;3.23;;;1.57;;
9128;SDS011;4599;50.906;6.786;2022-11-15T08:18:18;3.60;;;1.63;;
9128;SDS011;4599;50.906;6.786;2022-11-15T08:22:20;5.17;;;1.57;;
9128;SDS011;4599;50.906;6.786;2022-11-15T08:26:22;2.30;;;1.50;;
9128;SDS011;4599;50.906;6.786;2022-11-15T08:30:24;3.67;;;1.63;;
9128;SDS011;4599;50.906;6.786;2022-11-15T08:34:26;3.53;;;1.93;;
9128;SDS011;4599;50.906;6.786;2022-11-15T08:38:28;3.60;;;1.70;;
9128;SDS011;4599;50.906;6.786;2022-11-15T08:42:30;2.93;;;1.50;;
9128;SDS011;4599;50.906;6.786;2022-11-15T08:46:32;2.20;;;1.50;;
9128;SDS011;4599;50.906;6.786;2022-11-15T08:50:34;4.00;;;2.00;;
9128;SDS011;4599;50.906;6.786;2022-11-15T08:54:36;12.07;;;3.67;;
9128;SDS011;4599;50.906;6.786;2022-11-15T08:58:37;17.07;;;5.23;;
9128;SDS011;4599;50.906;6.786;2022-11-15T09:02:40;20.33;;;6.20;;
9128;SDS011;4599;50.906;6.786;2022-11-15T09:06:41;16.47;;;5.70;;
9128;SDS011;4599;50.906;6.786;2022-11-15T09:10:43;13.63;;;4.90;;
9128;SDS011;4599;50.906;6.786;2022-11-15T09:14:45;5.63;;;2.80;;
9128;SDS011;4599;50.906;6.786;2022-11-15T09:18:48;2.20;;;1.50;;
9128;SDS011;4599;50.906;6.786;2022-11-15T09:22:49;2.70;;;1.20;;
9128;SDS011;4599;50.906;6.786;2022-11-15T09:26:51;2.33;;;1.23;;
9128;SDS011;4599;50.906;6.786;2022-11-15T09:30:55;1.00;;;0.90;;
9128;SDS011;4599;50.906;6.786;2022-11-15T09:34:58;2.47;;;1.00;;
9128;SDS011;4599;50.906;6.786;2022-11-15T09:39:00;1.73;;;0.90;;
9128;SDS011;4599;50.906;6.786;2022-11-15T09:43:05;2.00;;;1.07;;
9128;SDS011;4599;50.906;6.786;2022-11-15T09:47:32;3.00;;;1.07;;
9128;SDS011;4599;50.906;6.786;2022-11-15T09:51:52;3.07;;;1.20;;
9128;SDS011;4599;50.906;6.786;2022-11-15T09:55:58;4.10;;;1.17;;
9128;SDS011;4599;50.906;6.786;2022-11-15T10:00:07;3.93;;;0.90;;
9128;SDS011;4599;50.906;6.786;2022-11-15T10:04:43;4.20;;;1.20;;
9128;SDS011;4599;50.906;6.786;2022-11-15T10:08:53;4.67;;;1.10;;
9128;SDS011;4599;50.906;6.786;2022-11-15T10:13:00;3.47;;;1.07;;
9128;SDS011;4599;50.906;6.786;2022-11-15T10:17:14;2.70;;;1.10;;
9128;SDS011;4599;50.906;6.786;2022-11-15T10:21:45;2.50;;;1.07;;
9128;SDS011;4599;50.906;6.786;2022-11-15T10:25:59;3.93;;;1.00;;
9128;SDS011;4599;50.906;6.786;2022-11-15T10:30:10;2.90;;;1.07;;
9128;SDS011;4599;50.906;6.786;2022-11-15T10:34:14;1.47;;;0.80;;
9128;SDS011;4599;50.906;6.786;2022-11-15T10:38:17;1.80;;;1.10;;
9128;SDS011;4599;50.906;6.786;2022-11-15T10:42:25;2.30;;;0.97;;
9128;SDS011;4599;50.906;6.786;2022-11-15T10:46:27;2.83;;;0.70;;
9128;SDS011;4599;50.906;6.786;2022-11-15T10:50:47;1.53;;;0.90;;
9128;SDS011;4599;50.906;6.786;2022-11-15T10:54:50;1.33;;;0.80;;
9128;SDS011;4599;50.906;6.786;2022-11-15T10:58:56;3.67;;;1.03;;
9128;SDS011;4599;50.906;6.786;2022-11-15T11:02:59;4.43;;;1.00;;
9128;SDS011;4599;50.906;6.786;2022-11-15T11:07:02;1.97;;;0.80;;
9128;SDS011;4599;50.906;6.786;2022-11-15T11:11:04;6.07;;;0.93;;
9128;SDS011;4599;50.906;6.786;2022-11-15T11:15:10;2.07;;;0.80;;
9128;SDS011;4599;50.906;6.786;2022-11-15T11:19:28;4.10;;;0.80;;
9128;SDS011;4599;50.906;6.786;2022-11-15T11:23:43;4.17;;;1.10;;
9128;SDS011;4599;50.906;6.786;2022-11-15T11:27:54;2.23;;;1.10;;
9128;SDS011;4599;50.906;6.786;2022-11-15T11:32:08;2.37;;;0.70;;
9128;SDS011;4599;50.906;6.786;2022-11-15T11:36:24;2.57;;;0.90;;
9128;SDS011;4599;50.906;6.786;2022-11-15T11:40:29;3.40;;;0.90;;
9128;SDS011;4599;50.906;6.786;2022-11-15T11:44:34;4.73;;;1.07;;
9128;SDS011;4599;50.906;6.786;2022-11-15T11:48:46;3.10;;;1.10;;
9128;SDS011;4599;50.906;6.786;2022-11-15T11:52:56;3.40;;;0.90;;
9128;SDS011;4599;50.906;6.786;2022-11-15T11:57:04;3.10;;;1.00;;
9128;SDS011;4599;50.906;6.786;2022-11-15T12:01:14;2.47;;;1.20;;
9128;SDS011;4599;50.906;6.786;2022-11-15T12:05:22;4.17;;;1.33;;
9128;SDS011;4599;50.906;6.786;2022-11-15T12:09:30;7.87;;;1.50;;
9128;SDS011;4599;50.906;6.786;2022-11-15T12:13:34;7.57;;;1.70;;
9128;SDS011;4599;50.906;6.786;2022-11-15T12:17:38;6.07;;;2.63;;
9128;SDS011;4599;50.906;6.786;2022-11-15T12:21:44;9.20;;;2.77;;
9128;SDS011;4599;50.906;6.786;2022-11-15T12:25:49;4.13;;;1.50;;
9128;SDS011;4599;50.906;6.786;2022-11-15T12:29:56;5.43;;;1.73;;
9128;SDS011;4599;50.906;6.786;2022-11-15T12:34:02;5.47;;;2.37;;
9128;SDS011;4599;50.906;6.786;2022-11-15T12:38:15;5.20;;;1.60;;
9128;SDS011;4599;50.906;6.786;2022-11-15T12:43:00;1.63;;;1.10;;
9128;SDS011;4599;50.906;6.786;2022-11-15T12:47:26;3.43;;;1.17;;
9128;SDS011;4599;50.906;6.786;2022-11-15T12:56:22;7.37;;;2.03;;
9128;SDS011;4599;50.906;6.786;2022-11-15T13:04:45;15.67;;;5.50;;
9128;SDS011;4599;50.906;6.786;2022-11-15T13:29:34;7.53;;;3.07;;
9128;SDS011;4599;50.906;6.786;2022-11-15T13:33:37;20.97;;;8.37;;
9128;SDS011;4599;50.906;6.786;2022-11-15T13:37:39;22.30;;;9.53;;
9128;SDS011;4599;50.906;6.786;2022-11-15T13:41:45;23.90;;;8.93;;
9128;SDS011;4599;50.906;6.786;2022-11-15T13:50:10;18.63;;;6.43;;
9128;SDS011;4599;50.906;6.786;2022-11-15T13:54:22;12.77;;;4.63;;
9128;SDS011;4599;50.906;6.786;2022-11-15T13:58:29;15.27;;;5.27;;
9128;SDS011;4599;50.906;6.786;2022-11-15T14:02:33;21.53;;;8.23;;
9128;SDS011;4599;50.906;6.786;2022-11-15T14:06:42;17.23;;;5.73;;
9128;SDS011;4599;50.906;6.786;2022-11-15T14:10:46;5.93;;;2.70;;
9128;SDS011;4599;50.906;6.786;2022-11-15T14:14:48;5.13;;;2.40;;
9128;SDS011;4599;50.906;6.786;2022-11-15T14:18:51;3.30;;;1.80;;
9128;SDS011;4599;50.906;6.786;2022-11-15T14:22:54;3.50;;;1.93;;
9128;SDS011;4599;50.906;6.786;2022-11-15T14:26:57;3.87;;;1.87;;
9128;SDS011;4599;50.906;6.786;2022-11-15T14:31:17;3.33;;;1.97;;
9128;SDS011;4599;50.906;6.786;2022-11-15T14:35:23;4.00;;;2.33;;
9128;SDS011;4599;50.906;6.786;2022-11-15T14:39:25;3.93;;;1.93;;
9128;SDS011;4599;50.906;6.786;2022-11-15T14:43:26;6.37;;;1.80;;
9128;SDS011;4599;50.906;6.786;2022-11-15T14:47:28;3.10;;;1.80;;
9128;SDS011;4599;50.906;6.786;2022-11-15T14:51:31;1.97;;;1.70;;
9128;SDS011;4599;50.906;6.786;2022-11-15T14:55:33;4.00;;;1.80;;
9128;SDS011;4599;50.906;6.786;2022-11-15T14:59:36;4.00;;;2.00;;
9128;SDS011;4599;50.906;6.786;2022-11-15T15:03:37;3.03;;;1.90;;
9128;SDS011;4599;50.906;6.786;2022-11-15T15:07:40;3.00;;;1.80;;
9128;SDS011;4599;50.906;6.786;2022-11-15T15:11:43;5.60;;;1.97;;
9128;SDS011;4599;50.906;6.786;2022-11-15T15:15:44;3.40;;;1.87;;
9128;SDS011;4599;50.906;6.786;2022-11-15T15:19:47;4.23;;;1.60;;
9128;SDS011;4599;50.906;6.786;2022-11-15T15:23:51;3.60;;;1.80;;
9128;SDS011;4599;50.906;6.786;2022-11-15T15:27:53;3.10;;;1.73;;
9128;SDS011;4599;50.906;6.786;2022-11-15T15:31:55;3.23;;;1.57;;
9128;SDS011;4599;50.906;6.786;2022-11-15T15:35:56;1.73;;;1.53;;
9128;SDS011;4599;50.906;6.786;2022-11-15T15:40:00;3.27;;;1.50;;
9128;SDS011;4599;50.906;6.786;2022-11-15T15:44:01;6.13;;;1.60;;
9128;SDS011;4599;50.906;6.786;2022-11-15T15:48:04;6.00;;;1.77;;
9128;SDS011;4599;50.906;6.786;2022-11-15T15:52:06;2.50;;;1.40;;
9128;SDS011;4599;50.906;6.786;2022-11-15T15:56:09;2.33;;;1.60;;
9128;SDS011;4599;50.906;6.786;2022-11-15T16:00:11;2.80;;;1.97;;
9128;SDS011;4599;50.906;6.786;2022-11-15T16:04:13;5.10;;;3.03;;
9128;SDS011;4599;50.906;6.786;2022-11-15T16:08:17;3.93;;;1.70;;
9128;SDS011;4599;50.906;6.786;2022-11-15T16:12:20;3.60;;;1.40;;
9128;SDS011;4599;50.906;6.786;2022-11-15T16:16:22;3.83;;;1.67;;
9128;SDS011;4599;50.906;6.786;2022-11-15T16:20:29;2.47;;;1.40;;
9128;SDS011;4599;50.906;6.786;2022-11-15T16:24:35;1.80;;;1.60;;
9128;SDS011;4599;50.906;6.786;2022-11-15T16:28:38;2.23;;;1.60;;
9128;SDS011;4599;50.906;6.786;2022-11-15T16:32:39;1.77;;;1.43;;
9128;SDS011;4599;50.906;6.786;2022-11-15T16:36:41;2.37;;;1.60;;
9128;SDS011;4599;50.906;6.786;2022-11-15T16:40:43;2.93;;;1.50;;
9128;SDS011;4599;50.906;6.786;2022-11-15T16:44:46;2.67;;;1.60;;
9128;SDS011;4599;50.906;6.786;2022-11-15T16:48:47;4.10;;;1.70;;
9128;SDS011;4599;50.906;6.786;2022-11-15T16:52:51;4.23;;;1.70;;
9128;SDS011;4599;50.906;6.786;2022-11-15T16:56:53;2.70;;;1.67;;
9128;SDS011;4599;50.906;6.786;2022-11-15T17:00:56;2.17;;;1.50;;
9128;SDS011;4599;50.906;6.786;2022-11-15T17:04:57;2.53;;;1.93;;
9128;SDS011;4599;50.906;6.786;2022-11-15T17:08:59;3.77;;;1.43;;
9128;SDS011;4599;50.906;6.786;2022-11-15T17:13:01;2.60;;;1.60;;
9128;SDS011;4599;50.906;6.786;2022-11-15T17:17:03;3.57;;;1.47;;
9128;SDS011;4599;50.906;6.786;2022-11-15T17:21:05;2.40;;;2.10;;
9128;SDS011;4599;50.906;6.786;2022-11-15T17:25:09;4.27;;;1.93;;
9128;SDS011;4599;50.906;6.786;2022-11-15T17:29:11;2.60;;;1.70;;
9128;SDS011;4599;50.906;6.786;2022-11-15T17:33:14;4.70;;;2.17;;
9128;SDS011;4599;50.906;6.786;2022-11-15T17:37:16;2.63;;;1.97;;
9128;SDS011;4599;50.906;6.786;2022-11-15T17:41:18;3.60;;;1.90;;
9128;SDS011;4599;50.906;6.786;2022-11-15T18:21:25;3.50;;;2.50;;
9128;SDS011;4599;50.906;6.786;2022-11-15T18:25:28;4.07;;;2.80;;
9128;SDS011;4599;50.906;6.786;2022-11-15T18:29:30;2.83;;;2.60;;
9128;SDS011;4599;50.906;6.786;2022-11-15T18:33:32;3.60;;;2.37;;
9128;SDS011;4599;50.906;6.786;2022-11-15T18:37:36;4.97;;;2.80;;
9128;SDS011;4599;50.906;6.786;2022-11-15T18:41:38;4.80;;;2.80;;
9128;SDS011;4599;50.906;6.786;2022-11-15T18:45:39;3.73;;;2.90;;
9128;SDS011;4599;50.906;6.786;2022-11-15T18:49:41;3.27;;;2.27;;
9128;SDS011;4599;50.906;6.786;2022-11-15T18:53:43;3.87;;;2.93;;
9128;SDS011;4599;50.906;6.786;2022-11-15T18:57:45;4.03;;;2.93;;
9128;SDS011;4599;50.906;6.786;2022-11-15T19:01:46;4.80;;;3.03;;
9128;SDS011;4599;50.906;6.786;2022-11-15T19:06:03;5.60;;;3.40;;
9128;SDS011;4599;50.906;6.786;2022-11-15T19:10:09;5.00;;;3.40;;
9128;SDS011;4599;50.906;6.786;2022-11-15T19:14:12;6.67;;;3.83;;
9128;SDS011;4599;50.906;6.786;2022-11-15T19:18:15;4.30;;;3.43;;
9128;SDS011;4599;50.906;6.786;2022-11-15T19:22:16;3.93;;;3.33;;
9128;SDS011;4599;50.906;6.786;2022-11-15T19:26:20;3.70;;;3.07;;
9128;SDS011;4599;50.906;6.786;2022-11-15T19:30:42;4.53;;;3.50;;
9128;SDS011;4599;50.906;6.786;2022-11-15T19:34:52;6.63;;;3.80;;
9128;SDS011;4599;50.906;6.786;2022-11-15T19:38:53;5.27;;;4.03;;
9128;SDS011;4599;50.906;6.786;2022-11-15T19:42:57;5.20;;;4.17;;
9128;SDS011;4599;50.906;6.786;2022-11-15T19:46:59;5.63;;;4.13;;
9128;SDS011;4599;50.906;6.786;2022-11-15T19:51:00;6.90;;;4.90;;
9128;SDS011;4599;50.906;6.786;2022-11-15T19:55:03;6.97;;;4.73;;
9128;SDS011;4599;50.906;6.786;2022-11-15T19:59:07;6.10;;;4.60;;
9128;SDS011;4599;50.906;6.786;2022-11-15T20:03:09;5.60;;;4.50;;
9128;SDS011;4599;50.906;6.786;2022-11-15T20:07:11;9.13;;;4.57;;
9128;SDS011;4599;50.906;6.786;2022-11-15T20:11:13;5.60;;;5.07;;
9128;SDS011;4599;50.906;6.786;2022-11-15T20:15:17;6.70;;;5.00;;
9128;SDS011;4599;50.906;6.786;2022-11-15T20:19:18;8.07;;;4.97;;
9128;SDS011;4599;50.906;6.786;2022-11-15T20:23:20;8.33;;;5.53;;
9128;SDS011;4599;50.906;6.786;2022-11-15T20:27:22;6.40;;;5.50;;
9128;SDS011;4599;50.906;6.786;2022-11-15T20:31:25;7.80;;;5.17;;
9128;SDS011;4599;50.906;6.786;2022-11-15T20:35:27;7.20;;;5.30;;
9128;SDS011;4599;50.906;6.786;2022-11-15T20:39:28;7.97;;;5.50;;
9128;SDS011;4599;50.906;6.786;2022-11-15T20:43:30;6.50;;;5.87;;
9128;SDS011;4599;50.906;6.786;2022-11-15T20:47:32;8.73;;;5.70;;
9128;SDS011;4599;50.906;6.786;2022-11-15T20:51:34;7.27;;;6.00;;
9128;SDS011;4599;50.906;6.786;2022-11-15T20:55:37;7.33;;;6.47;;
9128;SDS011;4599;50.906;6.786;2022-11-15T20:59:39;7.87;;;6.63;;
9128;SDS011;4599;50.906;6.786;2022-11-15T21:03:42;8.83;;;6.70;;
9128;SDS011;4599;50.906;6.786;2022-11-15T21:07:44;8.83;;;6.37;;
9128;SDS011;4599;50.906;6.786;2022-11-15T21:11:45;5.73;;;5.13;;
9128;SDS011;4599;50.906;6.786;2022-11-15T21:15:47;7.87;;;5.87;;
9128;SDS011;4599;50.906;6.786;2022-11-15T21:19:50;6.83;;;5.67;;
9128;SDS011;4599;50.906;6.786;2022-11-15T21:23:51;7.67;;;5.70;;
9128;SDS011;4599;50.906;6.786;2022-11-15T21:27:53;7.13;;;6.07;;
9128;SDS011;4599;50.906;6.786;2022-11-15T21:31:55;9.33;;;6.60;;
9128;SDS011;4599;50.906;6.786;2022-11-15T21:35:58;8.90;;;6.27;;
9128;SDS011;4599;50.906;6.786;2022-11-15T21:40:00;8.13;;;6.47;;
9128;SDS011;4599;50.906;6.786;2022-11-15T21:44:02;9.13;;;6.83;;
9128;SDS011;4599;50.906;6.786;2022-11-15T21:48:04;9.23;;;7.03;;
9128;SDS011;4599;50.906;6.786;2022-11-15T21:52:08;8.53;;;6.47;;
9128;SDS011;4599;50.906;6.786;2022-11-15T21:56:09;7.53;;;6.57;;
9128;SDS011;4599;50.906;6.786;2022-11-15T22:00:11;9.07;;;6.60;;
9128;SDS011;4599;50.906;6.786;2022-11-15T22:04:14;9.03;;;6.43;;
9128;SDS011;4599;50.906;6.786;2022-11-15T22:08:17;8.97;;;6.63;;
9128;SDS011;4599;50.906;6.786;2022-11-15T22:12:18;9.23;;;6.33;;
9128;SDS011;4599;50.906;6.786;2022-11-15T22:16:20;6.73;;;6.03;;
9128;SDS011;4599;50.906;6.786;2022-11-15T22:20:22;11.10;;;6.63;;
9128;SDS011;4599;50.906;6.786;2022-11-15T22:24:45;6.77;;;6.10;;
9128;SDS011;4599;50.906;6.786;2022-11-15T22:28:46;7.93;;;6.63;;
9128;SDS011;4599;50.906;6.786;2022-11-15T22:32:48;7.47;;;6.47;;
9128;SDS011;4599;50.906;6.786;2022-11-15T22:36:50;10.43;;;6.63;;
9128;SDS011;4599;50.906;6.786;2022-11-15T22:41:13;7.40;;;6.70;;
9128;SDS011;4599;50.906;6.786;2022-11-15T22:45:15;11.37;;;6.50;;
9128;SDS011;4599;50.906;6.786;2022-11-15T22:49:16;8.50;;;6.17;;
9128;SDS011;4599;50.906;6.786;2022-11-15T22:53:18;9.03;;;6.37;;
9128;SDS011;4599;50.906;6.786;2022-11-15T22:57:22;7.83;;;6.57;;
9128;SDS011;4599;50.906;6.786;2022-11-15T23:01:23;7.17;;;6.47;;
9128;SDS011;4599;50.906;6.786;2022-11-15T23:05:25;11.10;;;6.30;;
9128;SDS011;4599;50.906;6.786;2022-11-15T23:09:27;7.60;;;6.63;;
9128;SDS011;4599;50.906;6.786;2022-11-15T23:13:30;9.20;;;6.67;;
9128;SDS011;4599;50.906;6.786;2022-11-15T23:17:33;8.20;;;6.13;;
9128;SDS011;4599;50.906;6.786;2022-11-15T23:21:35;7.43;;;5.70;;
9128;SDS011;4599;50.906;6.786;2022-11-15T23:25:38;7.00;;;5.27;;
9128;SDS011;4599;50.906;6.786;2022-11-15T23:29:41;7.47;;;5.60;;
9128;SDS011;4599;50.906;6.786;2022-11-15T23:33:42;6.17;;;5.33;;
9128;SDS011;4599;50.906;6.786;2022-11-15T23:37:44;9.90;;;6.10;;
9128;SDS011;4599;50.906;6.786;2022-11-15T23:41:46;7.20;;;5.50;;
9128;SDS011;4599;50.906;6.786;2022-11-15T23:45:49;6.00;;;5.10;;
9128;SDS011;4599;50.906;6.786;2022-11-15T23:49:50;9.17;;;6.20;;
9128;SDS011;4599;50.906;6.786;2022-11-15T23:53:52;7.30;;;5.93;;
9128;SDS011;4599;50.906;6.786;2022-11-15T23:57:54;6.93;;;5.83;;
